sensor_id;sensor_type;location;lat;lon;timestamp;temperature;humidity
53422;DHT22;39319;52.944;5.928;2023-09-12T00:01:31;22.40;98.10
53422;DHT22;39319;52.944;5.928;2023-09-12T00:04:00;22.40;98.00
53422;DHT22;39319;52.944;5.928;2023-09-12T00:06:26;22.50;98.20
53422;DHT22;39319;52.944;5.928;2023-09-12T00:08:52;22.40;98.10
53422;DHT22;39319;52.944;5.928;2023-09-12T00:11:18;22.30;98.10
53422;DHT22;39319;52.944;5.928;2023-09-12T00:13:44;22.30;98.30
53422;DHT22;39319;52.944;5.928;2023-09-12T00:16:10;22.20;98.20
53422;DHT22;39319;52.944;5.928;2023-09-12T00:18:37;22.20;98.20
53422;DHT22;39319;52.944;5.928;2023-09-12T00:21:03;22.20;98.30
53422;DHT22;39319;52.944;5.928;2023-09-12T00:23:32;22.20;98.10
53422;DHT22;39319;52.944;5.928;2023-09-12T00:25:57;22.20;98.20
53422;DHT22;39319;52.944;5.928;2023-09-12T00:28:23;22.10;98.20
53422;DHT22;39319;52.944;5.928;2023-09-12T00:30:49;22.10;98.10
53422;DHT22;39319;52.944;5.928;2023-09-12T00:33:15;22.10;98.20
53422;DHT22;39319;52.944;5.928;2023-09-12T00:35:41;22.10;98.20
53422;DHT22;39319;52.944;5.928;2023-09-12T00:38:08;22.10;98.10
53422;DHT22;39319;52.944;5.928;2023-09-12T00:40:33;22.00;98.20
53422;DHT22;39319;52.944;5.928;2023-09-12T00:42:59;22.00;98.20
53422;DHT22;39319;52.944;5.928;2023-09-12T00:45:25;22.00;98.30
53422;DHT22;39319;52.944;5.928;2023-09-12T00:47:54;22.00;98.30
53422;DHT22;39319;52.944;5.928;2023-09-12T00:50:23;22.00;98.50
53422;DHT22;39319;52.944;5.928;2023-09-12T00:52:49;22.00;98.50
53422;DHT22;39319;52.944;5.928;2023-09-12T00:55:15;22.00;98.70
53422;DHT22;39319;52.944;5.928;2023-09-12T00:57:42;22.10;98.70
53422;DHT22;39319;52.944;5.928;2023-09-12T01:00:11;22.10;98.60
53422;DHT22;39319;52.944;5.928;2023-09-12T01:02:42;22.10;98.80
53422;DHT22;39319;52.944;5.928;2023-09-12T01:05:09;22.10;98.70
53422;DHT22;39319;52.944;5.928;2023-09-12T01:07:39;22.10;98.70
53422;DHT22;39319;52.944;5.928;2023-09-12T01:10:06;22.10;98.60
53422;DHT22;39319;52.944;5.928;2023-09-12T01:12:32;22.10;98.50
53422;DHT22;39319;52.944;5.928;2023-09-12T01:14:58;22.10;98.50
53422;DHT22;39319;52.944;5.928;2023-09-12T01:17:24;22.10;98.50
53422;DHT22;39319;52.944;5.928;2023-09-12T01:19:50;22.10;98.30
53422;DHT22;39319;52.944;5.928;2023-09-12T01:27:48;21.90;98.20
53422;DHT22;39319;52.944;5.928;2023-09-12T01:30:18;21.90;98.30
53422;DHT22;39319;52.944;5.928;2023-09-12T01:32:46;21.80;98.20
53422;DHT22;39319;52.944;5.928;2023-09-12T01:35:12;21.80;98.10
53422;DHT22;39319;52.944;5.928;2023-09-12T01:37:38;21.80;98.00
53422;DHT22;39319;52.944;5.928;2023-09-12T01:40:05;21.70;98.10
53422;DHT22;39319;52.944;5.928;2023-09-12T01:42:37;21.60;98.00
53422;DHT22;39319;52.944;5.928;2023-09-12T01:45:04;21.70;98.10
53422;DHT22;39319;52.944;5.928;2023-09-12T01:47:30;21.60;98.10
53422;DHT22;39319;52.944;5.928;2023-09-12T01:49:58;21.50;97.90
53422;DHT22;39319;52.944;5.928;2023-09-12T01:52:26;21.50;98.10
53422;DHT22;39319;52.944;5.928;2023-09-12T01:54:53;21.50;98.00
53422;DHT22;39319;52.944;5.928;2023-09-12T01:57:21;21.40;98.00
53422;DHT22;39319;52.944;5.928;2023-09-12T01:59:48;21.40;97.90
53422;DHT22;39319;52.944;5.928;2023-09-12T02:02:15;21.30;97.70
53422;DHT22;39319;52.944;5.928;2023-09-12T02:04:45;21.30;97.80
53422;DHT22;39319;52.944;5.928;2023-09-12T02:07:13;21.30;97.80
53422;DHT22;39319;52.944;5.928;2023-09-12T02:09:38;21.20;97.80
53422;DHT22;39319;52.944;5.928;2023-09-12T02:12:04;21.20;97.90
53422;DHT22;39319;52.944;5.928;2023-09-12T02:14:30;21.10;97.80
53422;DHT22;39319;52.944;5.928;2023-09-12T02:16:56;21.10;97.70
53422;DHT22;39319;52.944;5.928;2023-09-12T02:19:24;21.00;97.80
53422;DHT22;39319;52.944;5.928;2023-09-12T02:21:49;21.00;98.00
53422;DHT22;39319;52.944;5.928;2023-09-12T02:24:17;20.90;97.80
53422;DHT22;39319;52.944;5.928;2023-09-12T02:26:49;20.90;98.00
53422;DHT22;39319;52.944;5.928;2023-09-12T02:29:15;20.90;97.80
53422;DHT22;39319;52.944;5.928;2023-09-12T02:31:40;20.80;97.80
53422;DHT22;39319;52.944;5.928;2023-09-12T02:34:06;20.80;98.00
53422;DHT22;39319;52.944;5.928;2023-09-12T02:36:32;20.80;97.90
53422;DHT22;39319;52.944;5.928;2023-09-12T02:38:58;20.80;98.00
53422;DHT22;39319;52.944;5.928;2023-09-12T02:41:24;20.80;98.00
53422;DHT22;39319;52.944;5.928;2023-09-12T02:43:49;20.70;98.10
53422;DHT22;39319;52.944;5.928;2023-09-12T02:46:15;19.90;97.80
53422;DHT22;39319;52.944;5.928;2023-09-12T02:48:41;20.70;97.90
53422;DHT22;39319;52.944;5.928;2023-09-12T02:51:06;20.70;97.90
53422;DHT22;39319;52.944;5.928;2023-09-12T02:53:32;20.70;97.80
53422;DHT22;39319;52.944;5.928;2023-09-12T02:55:58;20.70;97.90
53422;DHT22;39319;52.944;5.928;2023-09-12T02:58:23;20.60;97.90
53422;DHT22;39319;52.944;5.928;2023-09-12T03:00:49;20.50;97.90
53422;DHT22;39319;52.944;5.928;2023-09-12T03:03:19;20.60;98.00
53422;DHT22;39319;52.944;5.928;2023-09-12T03:05:45;20.60;98.20
53422;DHT22;39319;52.944;5.928;2023-09-12T03:08:11;20.60;98.30
53422;DHT22;39319;52.944;5.928;2023-09-12T03:10:36;20.60;98.30
53422;DHT22;39319;52.944;5.928;2023-09-12T03:13:02;20.60;98.40
53422;DHT22;39319;52.944;5.928;2023-09-12T03:15:28;20.60;98.60
53422;DHT22;39319;52.944;5.928;2023-09-12T03:17:54;20.60;98.60
53422;DHT22;39319;52.944;5.928;2023-09-12T03:20:20;20.50;98.60
53422;DHT22;39319;52.944;5.928;2023-09-12T03:22:46;20.60;98.60
53422;DHT22;39319;52.944;5.928;2023-09-12T03:25:11;20.60;98.60
53422;DHT22;39319;52.944;5.928;2023-09-12T03:27:37;20.60;98.70
53422;DHT22;39319;52.944;5.928;2023-09-12T03:30:04;20.60;98.70
53422;DHT22;39319;52.944;5.928;2023-09-12T03:32:30;20.50;98.70
53422;DHT22;39319;52.944;5.928;2023-09-12T03:34:56;20.60;98.80
53422;DHT22;39319;52.944;5.928;2023-09-12T03:37:22;20.60;98.90
53422;DHT22;39319;52.944;5.928;2023-09-12T03:39:47;20.60;98.90
53422;DHT22;39319;52.944;5.928;2023-09-12T03:42:15;20.60;99.00
53422;DHT22;39319;52.944;5.928;2023-09-12T03:44:43;20.60;99.10
53422;DHT22;39319;52.944;5.928;2023-09-12T03:47:09;20.60;99.10
53422;DHT22;39319;52.944;5.928;2023-09-12T03:49:34;20.60;99.20
53422;DHT22;39319;52.944;5.928;2023-09-12T03:52:00;20.60;99.40
53422;DHT22;39319;52.944;5.928;2023-09-12T03:54:26;20.70;99.40
53422;DHT22;39319;52.944;5.928;2023-09-12T03:56:51;20.70;99.40
53422;DHT22;39319;52.944;5.928;2023-09-12T03:59:17;20.70;99.50
53422;DHT22;39319;52.944;5.928;2023-09-12T04:01:43;20.80;99.60
53422;DHT22;39319;52.944;5.928;2023-09-12T04:04:08;20.80;99.60
53422;DHT22;39319;52.944;5.928;2023-09-12T04:06:34;20.80;99.70
53422;DHT22;39319;52.944;5.928;2023-09-12T04:09:00;20.80;99.70
53422;DHT22;39319;52.944;5.928;2023-09-12T04:11:26;20.80;99.70
53422;DHT22;39319;52.944;5.928;2023-09-12T04:13:51;20.80;99.60
53422;DHT22;39319;52.944;5.928;2023-09-12T04:16:17;20.80;99.40
53422;DHT22;39319;52.944;5.928;2023-09-12T04:18:44;20.90;99.50
53422;DHT22;39319;52.944;5.928;2023-09-12T04:21:10;20.80;99.30
53422;DHT22;39319;52.944;5.928;2023-09-12T04:23:35;20.80;99.30
53422;DHT22;39319;52.944;5.928;2023-09-12T04:26:01;20.80;99.20
53422;DHT22;39319;52.944;5.928;2023-09-12T04:28:28;20.80;99.30
53422;DHT22;39319;52.944;5.928;2023-09-12T04:31:03;20.70;99.10
53422;DHT22;39319;52.944;5.928;2023-09-12T04:33:29;20.70;99.10
53422;DHT22;39319;52.944;5.928;2023-09-12T04:35:58;20.70;98.90
53422;DHT22;39319;52.944;5.928;2023-09-12T04:38:24;20.60;99.00
53422;DHT22;39319;52.944;5.928;2023-09-12T04:40:57;20.70;99.00
53422;DHT22;39319;52.944;5.928;2023-09-12T04:43:28;20.70;99.10
53422;DHT22;39319;52.944;5.928;2023-09-12T04:45:53;20.70;99.20
53422;DHT22;39319;52.944;5.928;2023-09-12T04:48:19;20.70;99.40
53422;DHT22;39319;52.944;5.928;2023-09-12T04:50:45;20.70;99.50
53422;DHT22;39319;52.944;5.928;2023-09-12T04:53:11;20.80;99.60
53422;DHT22;39319;52.944;5.928;2023-09-12T04:55:37;20.70;99.80
53422;DHT22;39319;52.944;5.928;2023-09-12T04:58:04;20.70;99.90
53422;DHT22;39319;52.944;5.928;2023-09-12T05:00:30;20.80;99.90
53422;DHT22;39319;52.944;5.928;2023-09-12T05:02:56;20.80;99.90
53422;DHT22;39319;52.944;5.928;2023-09-12T05:05:21;20.80;99.90
53422;DHT22;39319;52.944;5.928;2023-09-12T05:07:47;20.80;99.90
53422;DHT22;39319;52.944;5.928;2023-09-12T05:10:13;20.80;99.90
53422;DHT22;39319;52.944;5.928;2023-09-12T05:12:39;20.80;99.90
53422;DHT22;39319;52.944;5.928;2023-09-12T05:15:05;20.80;99.90
53422;DHT22;39319;52.944;5.928;2023-09-12T05:17:30;20.80;99.90
53422;DHT22;39319;52.944;5.928;2023-09-12T05:19:56;20.80;99.90
53422;DHT22;39319;52.944;5.928;2023-09-12T05:22:22;20.80;99.90
53422;DHT22;39319;52.944;5.928;2023-09-12T05:24:48;20.80;99.90
53422;DHT22;39319;52.944;5.928;2023-09-12T05:27:15;20.80;99.90
53422;DHT22;39319;52.944;5.928;2023-09-12T05:29:40;20.80;99.90
53422;DHT22;39319;52.944;5.928;2023-09-12T05:32:06;20.80;99.90
53422;DHT22;39319;52.944;5.928;2023-09-12T05:34:32;20.80;99.90
53422;DHT22;39319;52.944;5.928;2023-09-12T05:36:58;20.80;99.90
53422;DHT22;39319;52.944;5.928;2023-09-12T05:39:23;20.80;99.90
53422;DHT22;39319;52.944;5.928;2023-09-12T05:41:49;20.80;99.90
53422;DHT22;39319;52.944;5.928;2023-09-12T05:44:15;20.80;99.90
53422;DHT22;39319;52.944;5.928;2023-09-12T05:46:47;20.80;99.90
53422;DHT22;39319;52.944;5.928;2023-09-12T05:49:14;20.80;99.90
53422;DHT22;39319;52.944;5.928;2023-09-12T05:51:40;20.80;99.90
53422;DHT22;39319;52.944;5.928;2023-09-12T05:54:06;20.80;99.90
53422;DHT22;39319;52.944;5.928;2023-09-12T05:56:34;20.80;99.90
53422;DHT22;39319;52.944;5.928;2023-09-12T05:58:59;20.80;99.90
53422;DHT22;39319;52.944;5.928;2023-09-12T06:01:25;20.90;99.90
53422;DHT22;39319;52.944;5.928;2023-09-12T06:03:51;20.90;99.90
53422;DHT22;39319;52.944;5.928;2023-09-12T06:06:16;20.90;99.90
53422;DHT22;39319;52.944;5.928;2023-09-12T06:08:42;20.90;99.90
53422;DHT22;39319;52.944;5.928;2023-09-12T06:11:08;20.90;99.90
53422;DHT22;39319;52.944;5.928;2023-09-12T06:13:34;20.90;99.90
53422;DHT22;39319;52.944;5.928;2023-09-12T06:16:03;20.90;99.90
53422;DHT22;39319;52.944;5.928;2023-09-12T06:18:29;20.90;99.90
53422;DHT22;39319;52.944;5.928;2023-09-12T06:20:58;21.00;99.90
53422;DHT22;39319;52.944;5.928;2023-09-12T06:23:24;21.00;99.90
53422;DHT22;39319;52.944;5.928;2023-09-12T06:25:49;21.00;99.90
53422;DHT22;39319;52.944;5.928;2023-09-12T06:28:28;21.00;99.90
53422;DHT22;39319;52.944;5.928;2023-09-12T06:30:55;20.90;99.90
53422;DHT22;39319;52.944;5.928;2023-09-12T06:33:23;21.00;99.90
53422;DHT22;39319;52.944;5.928;2023-09-12T06:35:49;21.00;99.90
53422;DHT22;39319;52.944;5.928;2023-09-12T06:38:16;21.00;99.90
53422;DHT22;39319;52.944;5.928;2023-09-12T06:40:45;21.00;99.90
53422;DHT22;39319;52.944;5.928;2023-09-12T06:43:13;21.00;99.90
53422;DHT22;39319;52.944;5.928;2023-09-12T06:45:40;21.00;99.90
53422;DHT22;39319;52.944;5.928;2023-09-12T06:48:06;20.90;99.90
53422;DHT22;39319;52.944;5.928;2023-09-12T06:50:32;21.10;99.90
53422;DHT22;39319;52.944;5.928;2023-09-12T06:52:58;21.10;99.90
53422;DHT22;39319;52.944;5.928;2023-09-12T06:55:24;21.00;99.90
53422;DHT22;39319;52.944;5.928;2023-09-12T06:57:50;21.10;99.90
53422;DHT22;39319;52.944;5.928;2023-09-12T07:00:15;21.10;99.90
53422;DHT22;39319;52.944;5.928;2023-09-12T07:02:42;21.10;99.90
53422;DHT22;39319;52.944;5.928;2023-09-12T07:05:10;21.10;99.90
53422;DHT22;39319;52.944;5.928;2023-09-12T07:07:38;21.20;99.90
53422;DHT22;39319;52.944;5.928;2023-09-12T07:10:04;21.20;99.90
53422;DHT22;39319;52.944;5.928;2023-09-12T07:12:31;21.20;99.90
53422;DHT22;39319;52.944;5.928;2023-09-12T07:14:58;21.20;99.90
53422;DHT22;39319;52.944;5.928;2023-09-12T07:17:24;21.20;99.90
53422;DHT22;39319;52.944;5.928;2023-09-12T07:19:49;21.20;99.90
53422;DHT22;39319;52.944;5.928;2023-09-12T07:22:16;21.30;99.90
53422;DHT22;39319;52.944;5.928;2023-09-12T07:24:42;21.30;99.90
53422;DHT22;39319;52.944;5.928;2023-09-12T07:27:08;21.30;99.90
53422;DHT22;39319;52.944;5.928;2023-09-12T07:29:33;21.30;99.90
53422;DHT22;39319;52.944;5.928;2023-09-12T07:31:59;21.30;99.90
53422;DHT22;39319;52.944;5.928;2023-09-12T07:34:25;21.30;99.90
53422;DHT22;39319;52.944;5.928;2023-09-12T07:36:50;21.30;99.90
53422;DHT22;39319;52.944;5.928;2023-09-12T07:39:19;21.30;99.90
53422;DHT22;39319;52.944;5.928;2023-09-12T07:41:46;21.30;99.90
53422;DHT22;39319;52.944;5.928;2023-09-12T07:44:11;21.40;99.90
53422;DHT22;39319;52.944;5.928;2023-09-12T07:46:41;21.40;99.90
53422;DHT22;39319;52.944;5.928;2023-09-12T07:49:06;21.50;99.90
53422;DHT22;39319;52.944;5.928;2023-09-12T07:51:35;21.60;99.90
53422;DHT22;39319;52.944;5.928;2023-09-12T07:54:01;21.70;99.90
53422;DHT22;39319;52.944;5.928;2023-09-12T07:56:27;21.80;99.90
53422;DHT22;39319;52.944;5.928;2023-09-12T07:58:52;21.90;99.90
53422;DHT22;39319;52.944;5.928;2023-09-12T08:01:18;22.00;99.90
53422;DHT22;39319;52.944;5.928;2023-09-12T08:03:44;22.00;99.90
53422;DHT22;39319;52.944;5.928;2023-09-12T08:06:10;22.00;99.90
53422;DHT22;39319;52.944;5.928;2023-09-12T08:08:36;22.10;99.90
53422;DHT22;39319;52.944;5.928;2023-09-12T08:11:01;22.10;99.90
53422;DHT22;39319;52.944;5.928;2023-09-12T08:13:29;22.10;99.90
53422;DHT22;39319;52.944;5.928;2023-09-12T08:15:55;22.10;99.90
53422;DHT22;39319;52.944;5.928;2023-09-12T08:18:21;22.10;99.90
53422;DHT22;39319;52.944;5.928;2023-09-12T08:20:47;22.20;99.90
53422;DHT22;39319;52.944;5.928;2023-09-12T08:23:12;22.20;99.90
53422;DHT22;39319;52.944;5.928;2023-09-12T08:25:39;22.20;99.90
53422;DHT22;39319;52.944;5.928;2023-09-12T08:28:05;22.20;99.90
53422;DHT22;39319;52.944;5.928;2023-09-12T08:30:31;22.20;99.90
53422;DHT22;39319;52.944;5.928;2023-09-12T08:32:58;22.20;99.90
53422;DHT22;39319;52.944;5.928;2023-09-12T08:35:24;22.20;99.90
53422;DHT22;39319;52.944;5.928;2023-09-12T08:37:52;22.20;99.90
53422;DHT22;39319;52.944;5.928;2023-09-12T08:40:17;22.20;99.90
53422;DHT22;39319;52.944;5.928;2023-09-12T08:42:44;22.30;99.90
53422;DHT22;39319;52.944;5.928;2023-09-12T08:45:15;22.30;99.90
53422;DHT22;39319;52.944;5.928;2023-09-12T08:47:45;22.30;99.90
53422;DHT22;39319;52.944;5.928;2023-09-12T08:50:14;22.40;99.90
53422;DHT22;39319;52.944;5.928;2023-09-12T08:52:43;22.40;99.90
53422;DHT22;39319;52.944;5.928;2023-09-12T08:55:09;22.40;99.90
53422;DHT22;39319;52.944;5.928;2023-09-12T08:57:40;22.50;99.90
53422;DHT22;39319;52.944;5.928;2023-09-12T09:00:06;22.50;99.90
53422;DHT22;39319;52.944;5.928;2023-09-12T09:02:37;22.50;99.90
53422;DHT22;39319;52.944;5.928;2023-09-12T09:05:05;22.60;99.90
53422;DHT22;39319;52.944;5.928;2023-09-12T09:07:39;22.40;99.90
53422;DHT22;39319;52.944;5.928;2023-09-12T09:10:07;22.70;99.90
53422;DHT22;39319;52.944;5.928;2023-09-12T09:12:34;22.80;99.90
53422;DHT22;39319;52.944;5.928;2023-09-12T09:15:23;22.90;99.90
53422;DHT22;39319;52.944;5.928;2023-09-12T09:17:49;23.00;99.90
53422;DHT22;39319;52.944;5.928;2023-09-12T09:20:29;23.10;99.90
53422;DHT22;39319;52.944;5.928;2023-09-12T09:23:03;23.10;99.90
53422;DHT22;39319;52.944;5.928;2023-09-12T09:25:33;23.20;99.90
53422;DHT22;39319;52.944;5.928;2023-09-12T09:28:03;23.30;99.90
53422;DHT22;39319;52.944;5.928;2023-09-12T09:33:06;23.40;99.60
53422;DHT22;39319;52.944;5.928;2023-09-12T09:35:32;23.40;99.90
53422;DHT22;39319;52.944;5.928;2023-09-12T09:37:58;23.50;99.90
53422;DHT22;39319;52.944;5.928;2023-09-12T09:40:24;23.60;99.90
53422;DHT22;39319;52.944;5.928;2023-09-12T09:42:55;23.70;99.50
53422;DHT22;39319;52.944;5.928;2023-09-12T09:45:21;23.80;99.00
53422;DHT22;39319;52.944;5.928;2023-09-12T09:47:49;23.80;98.90
53422;DHT22;39319;52.944;5.928;2023-09-12T09:50:16;23.90;98.60
53422;DHT22;39319;52.944;5.928;2023-09-12T09:52:43;23.90;98.60
53422;DHT22;39319;52.944;5.928;2023-09-12T09:55:15;23.90;98.30
53422;DHT22;39319;52.944;5.928;2023-09-12T09:57:41;24.00;98.40
53422;DHT22;39319;52.944;5.928;2023-09-12T10:00:08;24.00;97.60
53422;DHT22;39319;52.944;5.928;2023-09-12T10:02:35;24.00;97.70
53422;DHT22;39319;52.944;5.928;2023-09-12T10:05:08;24.00;97.70
53422;DHT22;39319;52.944;5.928;2023-09-12T10:07:37;24.10;97.60
53422;DHT22;39319;52.944;5.928;2023-09-12T10:10:04;24.30;97.80
53422;DHT22;39319;52.944;5.928;2023-09-12T10:12:47;24.50;97.40
53422;DHT22;39319;52.944;5.928;2023-09-12T10:15:14;24.70;97.90
53422;DHT22;39319;52.944;5.928;2023-09-12T10:17:43;25.00;97.00
53422;DHT22;39319;52.944;5.928;2023-09-12T10:20:24;25.10;96.60
53422;DHT22;39319;52.944;5.928;2023-09-12T10:23:06;25.10;96.20
53422;DHT22;39319;52.944;5.928;2023-09-12T10:25:35;25.00;96.10
53422;DHT22;39319;52.944;5.928;2023-09-12T10:28:06;24.70;96.00
53422;DHT22;39319;52.944;5.928;2023-09-12T10:30:36;25.00;96.10
53422;DHT22;39319;52.944;5.928;2023-09-12T10:33:03;25.00;96.00
53422;DHT22;39319;52.944;5.928;2023-09-12T10:35:32;25.00;96.30
53422;DHT22;39319;52.944;5.928;2023-09-12T10:38:00;25.10;96.20
53422;DHT22;39319;52.944;5.928;2023-09-12T10:40:36;25.30;96.00
53422;DHT22;39319;52.944;5.928;2023-09-12T10:43:03;25.50;95.80
53422;DHT22;39319;52.944;5.928;2023-09-12T10:45:35;25.50;96.00
53422;DHT22;39319;52.944;5.928;2023-09-12T10:48:02;25.50;95.10
53422;DHT22;39319;52.944;5.928;2023-09-12T10:50:29;25.50;94.80
53422;DHT22;39319;52.944;5.928;2023-09-12T10:52:55;25.50;94.70
53422;DHT22;39319;52.944;5.928;2023-09-12T10:55:21;25.40;94.70
53422;DHT22;39319;52.944;5.928;2023-09-12T10:58:01;25.50;95.00
53422;DHT22;39319;52.944;5.928;2023-09-12T11:00:28;25.50;95.20
53422;DHT22;39319;52.944;5.928;2023-09-12T11:02:53;25.40;94.50
53422;DHT22;39319;52.944;5.928;2023-09-12T11:07:59;25.50;94.60
53422;DHT22;39319;52.944;5.928;2023-09-12T11:10:26;25.50;94.40
53422;DHT22;39319;52.944;5.928;2023-09-12T11:12:54;25.50;94.70
53422;DHT22;39319;52.944;5.928;2023-09-12T11:15:21;25.60;94.40
53422;DHT22;39319;52.944;5.928;2023-09-12T11:17:49;25.80;94.40
53422;DHT22;39319;52.944;5.928;2023-09-12T11:20:24;25.90;94.10
53422;DHT22;39319;52.944;5.928;2023-09-12T11:22:50;25.90;93.90
53422;DHT22;39319;52.944;5.928;2023-09-12T11:30:23;25.80;94.00
53422;DHT22;39319;52.944;5.928;2023-09-12T11:32:53;25.70;94.20
53422;DHT22;39319;52.944;5.928;2023-09-12T11:35:29;25.80;94.60
53422;DHT22;39319;52.944;5.928;2023-09-12T11:37:56;25.90;94.80
53422;DHT22;39319;52.944;5.928;2023-09-12T11:40:43;26.00;94.40
53422;DHT22;39319;52.944;5.928;2023-09-12T11:43:27;26.00;94.40
53422;DHT22;39319;52.944;5.928;2023-09-12T11:45:57;26.00;94.00
53422;DHT22;39319;52.944;5.928;2023-09-12T11:48:23;26.10;94.20
53422;DHT22;39319;52.944;5.928;2023-09-12T11:50:53;26.10;94.00
53422;DHT22;39319;52.944;5.928;2023-09-12T11:53:24;26.00;94.40
53422;DHT22;39319;52.944;5.928;2023-09-12T11:55:57;25.90;94.20
53422;DHT22;39319;52.944;5.928;2023-09-12T11:58:24;25.90;94.20
53422;DHT22;39319;52.944;5.928;2023-09-12T12:00:52;25.80;94.50
53422;DHT22;39319;52.944;5.928;2023-09-12T12:03:24;25.80;94.40
53422;DHT22;39319;52.944;5.928;2023-09-12T12:05:51;25.70;94.10
53422;DHT22;39319;52.944;5.928;2023-09-12T12:08:18;25.60;94.40
53422;DHT22;39319;52.944;5.928;2023-09-12T12:10:48;25.60;94.80
53422;DHT22;39319;52.944;5.928;2023-09-12T12:13:19;25.70;94.90
53422;DHT22;39319;52.944;5.928;2023-09-12T12:15:45;26.00;94.80
53422;DHT22;39319;52.944;5.928;2023-09-12T12:18:11;26.40;94.90
53422;DHT22;39319;52.944;5.928;2023-09-12T12:20:37;26.70;94.00
53422;DHT22;39319;52.944;5.928;2023-09-12T12:23:03;27.00;93.90
53422;DHT22;39319;52.944;5.928;2023-09-12T12:25:34;27.20;93.10
53422;DHT22;39319;52.944;5.928;2023-09-12T12:28:01;27.40;92.60
53422;DHT22;39319;52.944;5.928;2023-09-12T12:30:30;27.50;92.40
53422;DHT22;39319;52.944;5.928;2023-09-12T12:32:59;27.50;92.00
53422;DHT22;39319;52.944;5.928;2023-09-12T12:35:25;27.40;91.50
53422;DHT22;39319;52.944;5.928;2023-09-12T12:37:54;27.20;91.60
53422;DHT22;39319;52.944;5.928;2023-09-12T12:40:21;27.10;91.60
53422;DHT22;39319;52.944;5.928;2023-09-12T12:42:47;26.90;91.90
53422;DHT22;39319;52.944;5.928;2023-09-12T12:45:20;26.80;92.10
53422;DHT22;39319;52.944;5.928;2023-09-12T12:47:46;26.80;92.40
53422;DHT22;39319;52.944;5.928;2023-09-12T12:50:15;26.80;92.00
53422;DHT22;39319;52.944;5.928;2023-09-12T12:52:45;26.80;92.00
53422;DHT22;39319;52.944;5.928;2023-09-12T12:55:12;26.80;92.00
53422;DHT22;39319;52.944;5.928;2023-09-12T12:57:39;26.80;91.80
53422;DHT22;39319;52.944;5.928;2023-09-12T13:00:16;26.80;91.80
53422;DHT22;39319;52.944;5.928;2023-09-12T13:02:43;26.70;92.10
53422;DHT22;39319;52.944;5.928;2023-09-12T13:05:28;26.60;92.00
53422;DHT22;39319;52.944;5.928;2023-09-12T13:07:55;26.60;92.20
53422;DHT22;39319;52.944;5.928;2023-09-12T13:10:21;26.60;92.40
53422;DHT22;39319;52.944;5.928;2023-09-12T13:12:48;26.50;91.90
53422;DHT22;39319;52.944;5.928;2023-09-12T13:15:17;26.40;91.90
53422;DHT22;39319;52.944;5.928;2023-09-12T13:17:44;26.40;92.20
53422;DHT22;39319;52.944;5.928;2023-09-12T13:20:10;26.20;92.30
53422;DHT22;39319;52.944;5.928;2023-09-12T13:22:38;26.20;92.90
53422;DHT22;39319;52.944;5.928;2023-09-12T13:25:05;26.10;93.40
53422;DHT22;39319;52.944;5.928;2023-09-12T13:27:31;25.90;94.10
53422;DHT22;39319;52.944;5.928;2023-09-12T13:29:57;25.80;93.90
53422;DHT22;39319;52.944;5.928;2023-09-12T13:32:22;25.70;94.40
53422;DHT22;39319;52.944;5.928;2023-09-12T13:34:48;25.70;94.90
53422;DHT22;39319;52.944;5.928;2023-09-12T13:37:15;25.70;94.70
53422;DHT22;39319;52.944;5.928;2023-09-12T13:39:42;25.60;94.80
53422;DHT22;39319;52.944;5.928;2023-09-12T13:42:17;25.50;94.90
53422;DHT22;39319;52.944;5.928;2023-09-12T13:44:50;25.50;95.30
53422;DHT22;39319;52.944;5.928;2023-09-12T13:47:16;25.40;95.10
53422;DHT22;39319;52.944;5.928;2023-09-12T13:49:49;25.40;95.20
53422;DHT22;39319;52.944;5.928;2023-09-12T13:52:17;25.40;95.20
53422;DHT22;39319;52.944;5.928;2023-09-12T13:54:45;25.30;95.20
53422;DHT22;39319;52.944;5.928;2023-09-12T13:57:11;25.30;95.20
53422;DHT22;39319;52.944;5.928;2023-09-12T13:59:36;25.20;95.00
53422;DHT22;39319;52.944;5.928;2023-09-12T14:02:02;25.20;95.30
53422;DHT22;39319;52.944;5.928;2023-09-12T14:04:28;25.20;95.10
53422;DHT22;39319;52.944;5.928;2023-09-12T14:06:53;25.10;95.90
53422;DHT22;39319;52.944;5.928;2023-09-12T14:09:19;25.00;95.50
53422;DHT22;39319;52.944;5.928;2023-09-12T14:11:45;25.10;95.70
53422;DHT22;39319;52.944;5.928;2023-09-12T14:14:13;25.10;95.40
53422;DHT22;39319;52.944;5.928;2023-09-12T14:16:38;25.10;95.40
53422;DHT22;39319;52.944;5.928;2023-09-12T14:19:04;25.00;95.60
53422;DHT22;39319;52.944;5.928;2023-09-12T14:21:30;25.00;96.20
53422;DHT22;39319;52.944;5.928;2023-09-12T14:23:57;25.00;95.70
53422;DHT22;39319;52.944;5.928;2023-09-12T14:26:23;25.00;95.80
53422;DHT22;39319;52.944;5.928;2023-09-12T14:28:48;25.10;95.80
53422;DHT22;39319;52.944;5.928;2023-09-12T14:31:15;25.10;95.50
53422;DHT22;39319;52.944;5.928;2023-09-12T14:33:41;25.20;95.70
53422;DHT22;39319;52.944;5.928;2023-09-12T14:36:10;25.30;95.40
53422;DHT22;39319;52.944;5.928;2023-09-12T14:38:36;25.40;95.00
53422;DHT22;39319;52.944;5.928;2023-09-12T14:41:02;25.50;95.20
53422;DHT22;39319;52.944;5.928;2023-09-12T14:43:28;25.60;95.20
53422;DHT22;39319;52.944;5.928;2023-09-12T14:45:54;25.60;94.40
53422;DHT22;39319;52.944;5.928;2023-09-12T14:48:20;25.60;94.90
53422;DHT22;39319;52.944;5.928;2023-09-12T14:50:46;25.60;94.00
53422;DHT22;39319;52.944;5.928;2023-09-12T14:53:15;25.60;93.90
53422;DHT22;39319;52.944;5.928;2023-09-12T14:55:42;25.60;94.20
53422;DHT22;39319;52.944;5.928;2023-09-12T14:58:07;25.60;94.20
53422;DHT22;39319;52.944;5.928;2023-09-12T15:00:33;25.80;93.90
53422;DHT22;39319;52.944;5.928;2023-09-12T15:03:00;26.10;93.80
53422;DHT22;39319;52.944;5.928;2023-09-12T15:05:26;26.50;92.70
53422;DHT22;39319;52.944;5.928;2023-09-12T15:07:52;26.70;92.20
53422;DHT22;39319;52.944;5.928;2023-09-12T15:10:19;26.80;91.60
53422;DHT22;39319;52.944;5.928;2023-09-12T15:12:45;26.80;91.70
53422;DHT22;39319;52.944;5.928;2023-09-12T15:15:11;26.60;92.20
53422;DHT22;39319;52.944;5.928;2023-09-12T15:17:36;26.50;92.40
53422;DHT22;39319;52.944;5.928;2023-09-12T15:20:02;26.30;92.40
53422;DHT22;39319;52.944;5.928;2023-09-12T15:22:31;26.30;92.60
53422;DHT22;39319;52.944;5.928;2023-09-12T15:24:57;26.10;92.70
53422;DHT22;39319;52.944;5.928;2023-09-12T15:27:23;26.10;93.10
53422;DHT22;39319;52.944;5.928;2023-09-12T15:29:49;26.10;92.90
53422;DHT22;39319;52.944;5.928;2023-09-12T15:32:14;26.10;92.70
53422;DHT22;39319;52.944;5.928;2023-09-12T15:34:40;26.10;92.80
53422;DHT22;39319;52.944;5.928;2023-09-12T15:37:08;26.10;92.50
53422;DHT22;39319;52.944;5.928;2023-09-12T15:39:34;26.00;92.40
53422;DHT22;39319;52.944;5.928;2023-09-12T15:42:00;25.90;92.40
53422;DHT22;39319;52.944;5.928;2023-09-12T15:44:26;25.70;92.30
53422;DHT22;39319;52.944;5.928;2023-09-12T15:46:51;25.70;92.50